^^
Lisbon, NH - Weather Station Historical Data
Daily Summary for November 25, 2021 Units:  English    Metric   Both
Daily Weekly Monthly Yearly
  High: Low: Average:
Temperature: 35 °F 20 °F 26.9 °F
Dew Point: 26.5 °F 17.9 °F 21.9 °F
Humidity: 93.4% 65% 82%
Wind Speed: 2.1mph 0mph 0.3mph
Wind Gust: 5mph - -
Wind- - ESE
Pressure: 30.18 in 29.78 in -
Precipitation: 0.00 in    
 
 
Tabular Data for November 25, 2021
Time Temperature Dew Point Pressure Wind Wind Speed Wind Gust Humidity Rainfall Rate (Hourly) solar
00:04 21.1 °F 18.1 °F 30.18 in NE 0.2 mph 1 mph 88% 0.00 in 0 W/m2
00:09 21 °F 18 °F 30.18 in NNE 0.3 mph 1 mph 88% 0.00 in 0 W/m2
00:14 21 °F 18 °F 30.18 in NNE 0.1 mph 1 mph 88% 0.00 in 0 W/m2
00:19 21 °F 18 °F 30.18 in NNE 0.3 mph 1 mph 88% 0.00 in 0 W/m2
00:24 20.9 °F 17.9 °F 30.18 in NNE 0.4 mph 1 mph 88.2% 0.00 in 0 W/m2
00:29 20.8 °F 18.1 °F 30.18 in NNE 0.2 mph 1 mph 89% 0.00 in 0 W/m2
00:34 20.8 °F 18.1 °F 30.18 in Calm     89% 0.00 in 0 W/m2
00:39 20.8 °F 18.1 °F 30.18 in Calm     89% 0.00 in 0 W/m2
00:44 20.8 °F 18.1 °F 30.18 in Calm   1 mph 89% 0.00 in 0 W/m2
00:49 20.8 °F 18.1 °F 30.18 in NNE 0.8 mph 1 mph 89% 0.00 in 0 W/m2
00:54 20.8 °F 18.1 °F 30.18 in North 0.8 mph 2 mph 89% 0.00 in 0 W/m2
00:59 20.8 °F 18.1 °F 30.18 in Calm   1 mph 89% 0.00 in 0 W/m2
01:04 20.6 °F 17.9 °F 30.18 in Calm     89% 0.00 in 0 W/m2
01:09 20.6 °F 17.9 °F 30.18 in Calm     89% 0.00 in 0 W/m2
01:14 20.6 °F 18.1 °F 30.18 in Calm     89.7% 0.00 in 0 W/m2
01:19 20.6 °F 18.1 °F 30.18 in Calm     90% 0.00 in 0 W/m2
01:24 20.6 °F 18.1 °F 30.18 in Calm     90% 0.00 in 0 W/m2
01:29 20.6 °F 18.1 °F 30.18 in North 0.1 mph 1 mph 90% 0.00 in 0 W/m2
01:34 20.6 °F 18.1 °F 30.18 in North 0.2 mph 1 mph 90% 0.00 in 0 W/m2
01:39 20.6 °F 18.1 °F 30.18 in Calm   1 mph 90% 0.00 in 0 W/m2
01:44 20.6 °F 18.1 °F 30.18 in Calm     90% 0.00 in 0 W/m2
01:49 20.6 °F 18.1 °F 30.17 in Calm     90% 0.00 in 0 W/m2
01:54 20.5 °F 18 °F 30.17 in North 0.3 mph 1 mph 90% 0.00 in 0 W/m2
01:59 20.5 °F 18 °F 30.17 in NNE 0.3 mph 2 mph 90% 0.00 in 0 W/m2
02:04 20.5 °F 18 °F 30.17 in NE 1.1 mph 2 mph 90% 0.00 in 0 W/m2
02:09 20.5 °F 18.3 °F 30.17 in NNE 1 mph 2 mph 90.9% 0.00 in 0 W/m2
02:14 20.5 °F 18.3 °F 30.17 in NNE 1 mph 2 mph 91% 0.00 in 0 W/m2
02:19 20.5 °F 18.3 °F 30.16 in NNE 0.4 mph 2 mph 91% 0.00 in 0 W/m2
02:24 20.5 °F 18.3 °F 30.16 in NNE 0.4 mph 1 mph 91% 0.00 in 0 W/m2
02:29 20.3 °F 18.1 °F 30.16 in NE 0.2 mph 2 mph 91% 0.00 in 0 W/m2
02:34 20.3 °F 18.1 °F 30.16 in NE 0.9 mph 3 mph 91% 0.00 in 0 W/m2
02:39 20.3 °F 18.1 °F 30.16 in NNE 0.9 mph 3 mph 91% 0.00 in 0 W/m2
02:44 20.3 °F 18.1 °F 30.16 in North 0.5 mph 1 mph 91% 0.00 in 0 W/m2
02:49 20.5 °F 18.3 °F 30.15 in North 0.2 mph 1 mph 91% 0.00 in 0 W/m2
02:54 20.5 °F 18.3 °F 30.15 in NNE 0.1 mph 1 mph 91% 0.00 in 0 W/m2
02:59 20.5 °F 18.3 °F 30.16 in Calm   1 mph 91% 0.00 in 0 W/m2
03:04 20.5 °F 18.3 °F 30.16 in Calm     91% 0.00 in 0 W/m2
03:09 20.5 °F 18.3 °F 30.16 in NNE 0.3 mph 1 mph 91% 0.00 in 0 W/m2
03:14 20.5 °F 18.3 °F 30.16 in North 0.8 mph 1 mph 91% 0.00 in 0 W/m2
03:19 20.5 °F 18.3 °F 30.14 in North 0.7 mph 2 mph 91% 0.00 in 0 W/m2
03:24 20.5 °F 18.3 °F 30.14 in NNE 0.1 mph 1 mph 91% 0.00 in 0 W/m2
03:29 20.5 °F 18.3 °F 30.14 in NNE 0.5 mph 2 mph 91% 0.00 in 0 W/m2
03:34 20.5 °F 18.3 °F 30.14 in Calm   1 mph 91% 0.00 in 0 W/m2
03:39 20.5 °F 18.3 °F 30.14 in NE 0.1 mph 1 mph 91% 0.00 in 0 W/m2
03:44 20.5 °F 18.3 °F 30.14 in NE 0.2 mph 1 mph 91% 0.00 in 0 W/m2
03:49 20.5 °F 18.3 °F 30.14 in NE 0.1 mph 1 mph 91% 0.00 in 0 W/m2
03:54 20.5 °F 18.4 °F 30.14 in NE 1.1 mph 3 mph 91.3% 0.00 in 0 W/m2
03:59 20.5 °F 18.6 °F 30.14 in NE 0.6 mph 2 mph 92% 0.00 in 0 W/m2
04:04 20.6 °F 18.7 °F 30.14 in NE 0.3 mph 2 mph 92% 0.00 in 0 W/m2
04:09 20.6 °F 18.7 °F 30.14 in NE 0.3 mph 2 mph 92% 0.00 in 0 W/m2
04:14 20.6 °F 18.7 °F 30.15 in NE 0.1 mph 1 mph 92% 0.00 in 0 W/m2
04:19 20.6 °F 18.7 °F 30.15 in NE 0.1 mph 1 mph 92% 0.00 in 0 W/m2
04:24 20.6 °F 18.7 °F 30.15 in Calm     92% 0.00 in 0 W/m2
04:29 20.6 °F 18.7 °F 30.15 in NE 0.3 mph 1 mph 92% 0.00 in 0 W/m2
04:34 20.6 °F 18.7 °F 30.14 in NE 0.2 mph 1 mph 92% 0.00 in 0 W/m2
04:39 20.5 °F 18.5 °F 30.14 in NE 0.4 mph 1 mph 91.6% 0.00 in 0 W/m2
04:44 20.5 °F 18.6 °F 30.14 in NE 0.4 mph 1 mph 92% 0.00 in 0 W/m2
04:49 20.5 °F 18.6 °F 30.12 in NE 0.5 mph 2 mph 92% 0.00 in 0 W/m2
04:54 20.5 °F 18.6 °F 30.12 in NE 0.2 mph 1 mph 92% 0.00 in 0 W/m2
04:59 20.5 °F 18.6 °F 30.12 in NNE 0.1 mph 1 mph 92% 0.00 in 0 W/m2
05:04 20.5 °F 18.4 °F 30.12 in NNE 0.1 mph 1 mph 91.5% 0.00 in 0 W/m2
05:09 20.5 °F 18.6 °F 30.12 in NE 0.4 mph 2 mph 92% 0.00 in 0 W/m2
05:14 20.5 °F 18.6 °F 30.12 in NE 0.6 mph 2 mph 92% 0.00 in 0 W/m2
05:19 20.5 °F 18.6 °F 30.11 in NNE 0.1 mph 2 mph 92% 0.00 in 0 W/m2
05:24 20.5 °F 18.6 °F 30.11 in Calm     92% 0.00 in 0 W/m2
05:29 20.4 °F 18.4 °F 30.12 in Calm     92% 0.00 in 0 W/m2
05:34 20.3 °F 18.4 °F 30.12 in Calm     92% 0.00 in 0 W/m2
05:39 20.3 °F 18.4 °F 30.12 in Calm     92% 0.00 in 0 W/m2
05:44 20.2 °F 18.3 °F 30.12 in Calm     92% 0.00 in 0 W/m2
05:49 20.2 °F 18.3 °F 30.12 in Calm   1 mph 92% 0.00 in 0 W/m2
05:54 20.2 °F 18.3 °F 30.12 in Calm     92% 0.00 in 0 W/m2
05:59 20.2 °F 18.3 °F 30.12 in Calm     92% 0.00 in 0 W/m2
06:04 20.2 °F 18.3 °F 30.11 in Calm     92% 0.00 in 0 W/m2
06:09 20.2 °F 18.3 °F 30.11 in Calm     92% 0.00 in 0 W/m2
06:14 20.1 °F 18.1 °F 30.11 in Calm     92% 0.00 in 0 W/m2
06:19 20 °F 18.1 °F 30.11 in NNE 0.1 mph 1 mph 92% 0.00 in 0 W/m2
06:24 20 °F 18.1 °F 30.11 in Calm     92% 0.00 in 0 W/m2
06:29 20 °F 18.1 °F 30.11 in Calm     92% 0.00 in 0 W/m2
06:34 20 °F 18.1 °F 30.11 in Calm     92.1% 0.00 in 0 W/m2
06:39 20.2 °F 18.4 °F 30.11 in Calm   1 mph 92.9% 0.00 in 0 W/m2
06:44 20.2 °F 18.5 °F 30.11 in NNE 0.1 mph 1 mph 93% 0.00 in 7 W/m2
06:49 20.2 °F 18.5 °F 30.11 in NNE 0.1 mph 1 mph 93% 0.00 in 11 W/m2
06:54 20.3 °F 18.6 °F 30.11 in Calm     93% 0.00 in 12 W/m2
06:59 20.3 °F 18.6 °F 30.11 in Calm     93% 0.00 in 14 W/m2
07:04 20.3 °F 18.6 °F 30.11 in Calm     93% 0.00 in 16 W/m2
07:09 20.5 °F 18.8 °F 30.11 in Calm     93% 0.00 in 18 W/m2
07:14 20.5 °F 18.8 °F 30.11 in Calm     93% 0.00 in 18 W/m2
07:19 20.5 °F 18.8 °F 30.11 in Calm     93% 0.00 in 19 W/m2
07:24 20.5 °F 18.8 °F 30.11 in Calm     93% 0.00 in 21 W/m2
07:29 20.5 °F 18.8 °F 30.11 in Calm     93% 0.00 in 25 W/m2
07:34 20.5 °F 18.8 °F 30.10 in Calm     93% 0.00 in 25 W/m2
07:39 20.6 °F 18.9 °F 30.10 in Calm     93% 0.00 in 28 W/m2
07:44 20.6 °F 18.9 °F 30.10 in NNE 0.1 mph 1 mph 93% 0.00 in 33 W/m2
07:49 20.7 °F 19 °F 30.10 in Calm   1 mph 93% 0.00 in 35 W/m2
07:54 20.8 °F 19.1 °F 30.10 in Calm   1 mph 93% 0.00 in 63 W/m2
07:59 21 °F 19.3 °F 30.10 in ESE 0.2 mph 2 mph 93% 0.00 in 111 W/m2
08:04 21.3 °F 19.7 °F 30.10 in ESE 0.3 mph 1 mph 93.4% 0.00 in 172 W/m2
08:09 21.9 °F 20.3 °F 30.10 in ESE 0.2 mph 1 mph 93.4% 0.00 in 135 W/m2
08:14 22.2 °F 20.5 °F 30.10 in ESE 0.1 mph 1 mph 93% 0.00 in 81 W/m2
08:19 22.5 °F 20.8 °F 30.09 in ESE 0.1 mph 1 mph 92.9% 0.00 in 99 W/m2
08:24 22.7 °F 20.7 °F 30.09 in ESE 0.6 mph 1 mph 91.9% 0.00 in 55 W/m2
08:29 22.7 °F 20.5 °F 30.09 in ESE 0.6 mph 2 mph 91% 0.00 in 49 W/m2
08:34 22.7 °F 20.4 °F 30.09 in ESE 0.4 mph 1 mph 90.8% 0.00 in 49 W/m2
08:39 22.9 °F 20.5 °F 30.09 in East 0.2 mph 1 mph 90.5% 0.00 in 49 W/m2
08:44 23.1 °F 20.6 °F 30.09 in ENE 1.3 mph 2 mph 90% 0.00 in 58 W/m2
08:49 23.3 °F 20.8 °F 30.08 in ENE 1.4 mph 2 mph 90% 0.00 in 58 W/m2
08:54 23.3 °F 20.8 °F 30.08 in ENE 2 mph 2 mph 90% 0.00 in 58 W/m2
08:59 23.6 °F 20.9 °F 30.08 in ENE 2 mph 2 mph 89.1% 0.00 in 58 W/m2
09:04 24.1 °F 21.3 °F 30.07 in ENE 1.4 mph 2 mph 89% 0.00 in 62 W/m2
09:06 24.4 °F 21.6 °F 30.07 in ENE 2.1 mph 3 mph 88.8% 0.00 in 63 W/m2
09:10 24.3 °F 21.3 °F 30.07 in ENE 2 mph 3 mph 88% 0.00 in 63 W/m2
09:20 24.7 °F 21.7 °F 30.06 in ENE 2 mph 3 mph 88% 0.00 in 69 W/m2
09:30 25.3 °F 22.3 °F 30.06 in ENE 1 mph 3 mph 88% 0.00 in 69 W/m2
09:40 25.8 °F 22.7 °F 30.06 in ENE 2 mph 5 mph 88% 0.00 in 69 W/m2
09:50 26.4 °F 23.3 °F 30.05 in ENE 2 mph 5 mph 88% 0.00 in 69 W/m2
10:00 26.6 °F 23.5 °F 30.04 in ENE 1 mph 1 mph 88% 0.00 in 69 W/m2
10:10 27.1 °F 24 °F 30.04 in NE 1 mph 1 mph 88% 0.00 in 69 W/m2
10:20 27.5 °F 24.4 °F 30.04 in Calm   1 mph 88% 0.00 in 69 W/m2
10:30 27.8 °F 24.7 °F 30.02 in ENE 1 mph 1 mph 88% 0.00 in 69 W/m2
10:49 29.1 °F 23.9 °F 30.01 in NE 0.1 mph 1 mph 80.9% 0.00 in 146 W/m2
10:54 29.4 °F 22.7 °F 30.01 in NE 1.1 mph 2 mph 75.9% 0.00 in 143 W/m2
10:59 29.7 °F 22.8 °F 30.01 in ENE 0.6 mph 2 mph 75% 0.00 in 134 W/m2
11:04 29.8 °F 22.9 °F 30.00 in ENE 1 mph 1 mph 75% 0.00 in 134 W/m2
11:09 29.9 °F 22.4 °F 30.00 in NE 0.8 mph 1 mph 73.2% 0.00 in 134 W/m2
11:14 30 °F 22.4 °F 30.00 in ENE 0.3 mph 1 mph 73% 0.00 in 134 W/m2
11:19 30.3 °F 22.6 °F 29.99 in Calm     72.6% 0.00 in 111 W/m2
11:24 30.7 °F 22.7 °F 29.99 in ENE 0.5 mph 1 mph 71.9% 0.00 in 123 W/m2
11:29 30.7 °F 22.4 °F 29.99 in ENE 0.3 mph 1 mph 71% 0.00 in 123 W/m2
11:34 30.9 °F 22.7 °F 29.98 in ENE 0.2 mph 1 mph 71% 0.00 in 118 W/m2
11:39 31.3 °F 22.8 °F 29.98 in ENE 0.6 mph 1 mph 70.4% 0.00 in 109 W/m2
11:44 31.5 °F 22.4 °F 29.98 in ENE 0.1 mph 1 mph 68.7% 0.00 in 113 W/m2
11:49 31.5 °F 22.2 °F 29.97 in Calm   1 mph 68% 0.00 in 113 W/m2
11:54 31.7 °F 22.4 °F 29.97 in ENE 0.2 mph 1 mph 68% 0.00 in 91 W/m2
11:59 31.9 °F 22.6 °F 29.97 in ENE 0.1 mph 1 mph 68% 0.00 in 65 W/m2
12:04 32.1 °F 22.8 °F 29.96 in ENE 0.5 mph 1 mph 68% 0.00 in 62 W/m2
12:09 32.3 °F 22.9 °F 29.96 in Calm     68% 0.00 in 77 W/m2
12:14 32.4 °F 23 °F 29.96 in ENE 0.2 mph 1 mph 68% 0.00 in 102 W/m2
12:19 32.4 °F 23.2 °F 29.95 in Calm   1 mph 68.4% 0.00 in 127 W/m2
12:24 32.6 °F 23.6 °F 29.95 in Calm     69% 0.00 in 130 W/m2
12:29 32.8 °F 23.6 °F 29.95 in Calm     68.6% 0.00 in 125 W/m2
12:34 33 °F 23.4 °F 29.95 in ENE 0.2 mph 1 mph 67.5% 0.00 in 148 W/m2
12:39 33.1 °F 23.4 °F 29.95 in ESE 0.7 mph 2 mph 67% 0.00 in 172 W/m2
12:44 33.1 °F 23.2 °F 29.95 in SE 0.4 mph 2 mph 66.5% 0.00 in 174 W/m2
12:49 33.4 °F 23.4 °F 29.94 in SSE 0.2 mph 1 mph 66.3% 0.00 in 143 W/m2
12:54 33.5 °F 23 °F 29.94 in SSE 0.7 mph 1 mph 65.1% 0.00 in 113 W/m2
12:59 33.5 °F 23 °F 29.94 in Calm   1 mph 65% 0.00 in 134 W/m2
13:04 33.7 °F 23.4 °F 29.92 in SE 0.2 mph 1 mph 65.6% 0.00 in 155 W/m2
13:09 34 °F 23.8 °F 29.92 in ESE 0.1 mph 1 mph 65.9% 0.00 in 139 W/m2
13:14 34.3 °F 23.9 °F 29.92 in ESE 0.1 mph 1 mph 65.3% 0.00 in 111 W/m2
13:19 34.4 °F 23.8 °F 29.91 in ESE 0.1 mph 1 mph 65% 0.00 in 77 W/m2
13:24 34.4 °F 23.9 °F 29.91 in Calm     65% 0.00 in 65 W/m2
13:29 34.4 °F 23.9 °F 29.91 in ESE 0.4 mph 1 mph 65% 0.00 in 69 W/m2
13:34 34.6 °F 24.1 °F 29.90 in South 0.7 mph 2 mph 65.4% 0.00 in 79 W/m2
13:39 34.7 °F 24.2 °F 29.90 in SSW 1.4 mph 3 mph 65.1% 0.00 in 79 W/m2
13:44 34.6 °F 24.2 °F 29.90 in SSW 1.4 mph 3 mph 65.4% 0.00 in 74 W/m2
13:49 34.6 °F 24.4 °F 29.90 in SSW 1.4 mph 2 mph 66% 0.00 in 86 W/m2
13:54 34.6 °F 24.5 °F 29.90 in SSW 2.1 mph 5 mph 66.2% 0.00 in 95 W/m2
13:59 34.6 °F 24.6 °F 29.90 in SSW 2 mph 5 mph 66.4% 0.00 in 93 W/m2
14:04 34.5 °F 24.4 °F 29.90 in SW 1 mph 5 mph 66.3% 0.00 in 86 W/m2
14:09 34.4 °F 24.5 °F 29.90 in SW 1.5 mph 5 mph 66.6% 0.00 in 88 W/m2
14:14 34.4 °F 24.4 °F 29.90 in SW 1.3 mph 5 mph 66.6% 0.00 in 84 W/m2
14:19 34.4 °F 24.6 °F 29.90 in SW 1.4 mph 3 mph 67% 0.00 in 86 W/m2
14:24 34.3 °F 24.5 °F 29.90 in SW 1.7 mph 3 mph 67% 0.00 in 86 W/m2
14:29 34.3 °F 24.4 °F 29.90 in SSW 0.8 mph 3 mph 66.8% 0.00 in 84 W/m2
14:34 34.3 °F 24.5 °F 29.90 in SW 0.5 mph 2 mph 67% 0.00 in 84 W/m2
14:39 34.4 °F 24.6 °F 29.90 in SSW 0.7 mph 2 mph 67% 0.00 in 76 W/m2
14:44 34.6 °F 24.6 °F 29.90 in SSW 0.3 mph 2 mph 66.4% 0.00 in 67 W/m2
14:49 34.6 °F 24.8 °F 29.89 in SSW 0.3 mph 2 mph 67% 0.00 in 65 W/m2
14:54 34.7 °F 24.7 °F 29.89 in SSW 1.1 mph 3 mph 66.6% 0.00 in 65 W/m2
14:59 34.7 °F 24.5 °F 29.90 in South 0.2 mph 3 mph 66% 0.00 in 74 W/m2
15:04 34.8 °F 24.6 °F 29.90 in SSW 0.7 mph 2 mph 66% 0.00 in 76 W/m2
15:09 34.9 °F 24.7 °F 29.90 in SW 1 mph 3 mph 66% 0.00 in 74 W/m2
15:14 35 °F 24.8 °F 29.90 in SSW 1.3 mph 5 mph 66% 0.00 in 63 W/m2
15:19 35 °F 24.7 °F 29.90 in SW 0.9 mph 5 mph 65.8% 0.00 in 62 W/m2
15:24 34.9 °F 24.7 °F 29.90 in SW 0.2 mph 1 mph 66% 0.00 in 65 W/m2
15:29 34.9 °F 24.7 °F 29.90 in SW 0.2 mph 1 mph 65.9% 0.00 in 62 W/m2
15:34 34.9 °F 24.7 °F 29.89 in SW 0.2 mph 1 mph 66.2% 0.00 in 49 W/m2
15:39 34.7 °F 24.8 °F 29.89 in SW 0.2 mph 2 mph 66.7% 0.00 in 46 W/m2
15:44 34.7 °F 24.9 °F 29.89 in Calm   2 mph 67% 0.00 in 33 W/m2
15:49 34.7 °F 24.7 °F 29.88 in SW 0.3 mph 1 mph 66.6% 0.00 in 23 W/m2
15:54 34.5 °F 24.4 °F 29.88 in Calm   1 mph 66.2% 0.00 in 19 W/m2
15:59 34.3 °F 24.6 °F 29.88 in Calm     67.4% 0.00 in 16 W/m2
16:04 34 °F 24.7 °F 29.88 in Calm     68.3% 0.00 in 14 W/m2
16:09 33.7 °F 24.6 °F 29.88 in Calm     69% 0.00 in 12 W/m2
16:14 33.4 °F 24.8 °F 29.88 in SW 0.2 mph 1 mph 70.3% 0.00 in 7 W/m2
16:19 33.1 °F 24.7 °F 29.88 in Calm   1 mph 71% 0.00 in 5 W/m2
16:24 32.8 °F 24.6 °F 29.88 in Calm   1 mph 71.7% 0.00 in 0 W/m2
16:29 32.4 °F 24.4 °F 29.88 in Calm     72.1% 0.00 in 0 W/m2
16:34 32.1 °F 24.7 °F 29.88 in Calm   1 mph 73.7% 0.00 in 0 W/m2
16:39 31.9 °F 24.8 °F 29.88 in SW 0.3 mph 1 mph 74.7% 0.00 in 0 W/m2
16:44 31.7 °F 24.7 °F 29.88 in Calm   1 mph 75% 0.00 in 0 W/m2
16:49 31.5 °F 24.6 °F 29.88 in Calm     75.2% 0.00 in 0 W/m2
16:54 31.3 °F 24.7 °F 29.88 in Calm     76% 0.00 in 0 W/m2
16:59 31.2 °F 24.5 °F 29.88 in Calm     76% 0.00 in 0 W/m2
17:04 31 °F 24.5 °F 29.88 in Calm     76.4% 0.00 in 0 W/m2
17:09 30.9 °F 24.5 °F 29.88 in SW 0.3 mph 1 mph 77% 0.00 in 0 W/m2
17:14 30.7 °F 24.3 °F 29.88 in SW 0.1 mph 1 mph 77% 0.00 in 0 W/m2
17:19 30.6 °F 24.4 °F 29.87 in Calm     77.6% 0.00 in 0 W/m2
17:24 30.4 °F 24.4 °F 29.87 in Calm     78% 0.00 in 0 W/m2
17:29 30.4 °F 24.4 °F 29.87 in Calm     78.2% 0.00 in 0 W/m2
17:34 30.3 °F 24.6 °F 29.87 in Calm     79% 0.00 in 0 W/m2
17:39 30.3 °F 24.7 °F 29.87 in Calm     79.4% 0.00 in 0 W/m2
17:44 30.4 °F 25 °F 29.87 in Calm     80% 0.00 in 0 W/m2
17:49 30.4 °F 25 °F 29.86 in Calm     80% 0.00 in 0 W/m2
17:54 30.6 °F 25.2 °F 29.86 in Calm     80% 0.00 in 0 W/m2
17:59 30.6 °F 25.5 °F 29.86 in Calm     80.9% 0.00 in 0 W/m2
18:04 30.7 °F 25.6 °F 29.85 in Calm     81% 0.00 in 0 W/m2
18:09 30.7 °F 25.6 °F 29.85 in Calm     81% 0.00 in 0 W/m2
18:14 30.9 °F 25.5 °F 29.86 in Calm     80.1% 0.00 in 0 W/m2
18:19 30.9 °F 25.5 °F 29.86 in Calm     80% 0.00 in 0 W/m2
18:24 30.9 °F 25.5 °F 29.86 in Calm     80% 0.00 in 0 W/m2
18:29 30.9 °F 25.6 °F 29.86 in SW 0.2 mph 1 mph 80.4% 0.00 in 0 W/m2
18:34 30.9 °F 25.8 °F 29.85 in Calm   1 mph 81% 0.00 in 0 W/m2
18:39 30.9 °F 25.8 °F 29.85 in Calm     81% 0.00 in 0 W/m2
18:44 30.9 °F 25.8 °F 29.85 in Calm     81% 0.00 in 0 W/m2
18:49 30.9 °F 25.8 °F 29.84 in Calm     81% 0.00 in 0 W/m2
18:54 30.9 °F 25.8 °F 29.84 in SW 0.1 mph 1 mph 81.2% 0.00 in 0 W/m2
18:59 30.9 °F 26.1 °F 29.84 in Calm   1 mph 82% 0.00 in 0 W/m2
19:04 30.9 °F 26.1 °F 29.83 in SW 0.3 mph 1 mph 82% 0.00 in 0 W/m2
19:09 31 °F 25.9 °F 29.83 in SW 0.3 mph 1 mph 81.1% 0.00 in 0 W/m2
19:14 31 °F 25.9 °F 29.83 in Calm   1 mph 81% 0.00 in 0 W/m2
19:19 31 °F 25.7 °F 29.83 in SW 0.1 mph 1 mph 80.3% 0.00 in 0 W/m2
19:24 31.1 °F 25.7 °F 29.83 in Calm   1 mph 80% 0.00 in 0 W/m2
19:29 31.2 °F 25.8 °F 29.83 in Calm     80% 0.00 in 0 W/m2
19:34 31.2 °F 25.9 °F 29.81 in SW 0.2 mph 1 mph 80.6% 0.00 in 0 W/m2
19:39 31.2 °F 25.8 °F 29.81 in SW 0.2 mph 1 mph 80.1% 0.00 in 0 W/m2
19:44 31.2 °F 25.8 °F 29.81 in Calm     80% 0.00 in 0 W/m2
19:49 31.1 °F 25.6 °F 29.81 in Calm     80% 0.00 in 0 W/m2
19:54 30.9 °F 25.7 °F 29.81 in Calm     80.7% 0.00 in 0 W/m2
19:59 30.8 °F 25.6 °F 29.81 in Calm     81% 0.00 in 0 W/m2
20:04 30.7 °F 25.6 °F 29.80 in SW 0.4 mph 2 mph 81.4% 0.00 in 0 W/m2
20:09 30.5 °F 25.7 °F 29.80 in SW 0.3 mph 2 mph 82% 0.00 in 0 W/m2
20:14 30.3 °F 25.6 °F 29.80 in Calm     82.2% 0.00 in 0 W/m2
20:19 30.3 °F 25.8 °F 29.80 in Calm     83% 0.00 in 0 W/m2
20:24 30.3 °F 26 °F 29.80 in SW 0.1 mph 1 mph 83.7% 0.00 in 0 W/m2
20:29 30.3 °F 26.1 °F 29.80 in SW 0.2 mph 1 mph 84% 0.00 in 0 W/m2
20:34 30.3 °F 26.1 °F 29.80 in SW 0.4 mph 2 mph 84% 0.00 in 0 W/m2
20:39 30.3 °F 26.1 °F 29.80 in SW 0.4 mph 2 mph 84% 0.00 in 0 W/m2
20:44 30.4 °F 26.1 °F 29.80 in SW 0.4 mph 1 mph 84% 0.00 in 0 W/m2
20:49 30.4 °F 26.2 °F 29.79 in Calm   1 mph 84% 0.00 in 0 W/m2
20:54 30.5 °F 26 °F 29.79 in SW 0.1 mph 1 mph 83.3% 0.00 in 0 W/m2
20:59 30.6 °F 26.1 °F 29.79 in WSW 0.9 mph 2 mph 83% 0.00 in 0 W/m2
21:04 30.7 °F 26.1 °F 29.79 in WNW 1.1 mph 2 mph 83% 0.00 in 0 W/m2
21:09 30.7 °F 26.2 °F 29.79 in Calm   2 mph 83% 0.00 in 0 W/m2
21:14 30.8 °F 26.3 °F 29.79 in Calm     83% 0.00 in 0 W/m2
21:19 30.9 °F 26.4 °F 29.78 in Calm     83% 0.00 in 0 W/m2
21:24 31 °F 26.4 °F 29.78 in WNW 0.1 mph 1 mph 83% 0.00 in 0 W/m2
21:29 31 °F 26.5 °F 29.78 in Calm     83% 0.00 in 0 W/m2
21:30 31 °F 26.5 °F 29.78 in Calm     83% 0.00 in 0 W/m2
Lisbon, New Hampshire, USA
Compliments of Weather Underground - 3.75 mb